sensor_id;sensor_type;location;lat;lon;timestamp;P1;durP1;ratioP1;P2;durP2;ratioP2
5273;SDS011;56254;50.956;7.010;2022-12-29T00:00:13;1.33;;;1.17;;
5273;SDS011;56254;50.956;7.010;2022-12-29T00:02:39;1.37;;;1.20;;
5273;SDS011;56254;50.956;7.010;2022-12-29T00:05:05;2.20;;;1.20;;
5273;SDS011;56254;50.956;7.010;2022-12-29T00:07:31;1.00;;;1.00;;
5273;SDS011;56254;50.956;7.010;2022-12-29T00:09:57;2.30;;;1.07;;
5273;SDS011;56254;50.956;7.010;2022-12-29T00:12:23;1.83;;;1.00;;
5273;SDS011;56254;50.956;7.010;2022-12-29T00:14:49;0.80;;;0.80;;
5273;SDS011;56254;50.956;7.010;2022-12-29T00:17:33;1.00;;;1.00;;
5273;SDS011;56254;50.956;7.010;2022-12-29T00:19:58;0.97;;;0.83;;
5273;SDS011;56254;50.956;7.010;2022-12-29T00:22:43;0.77;;;0.77;;
5273;SDS011;56254;50.956;7.010;2022-12-29T00:25:27;1.57;;;1.00;;
5273;SDS011;56254;50.956;7.010;2022-12-29T00:28:11;1.83;;;0.77;;
5273;SDS011;56254;50.956;7.010;2022-12-29T00:30:59;0.90;;;0.90;;
5273;SDS011;56254;50.956;7.010;2022-12-29T00:33:43;0.83;;;0.83;;
5273;SDS011;56254;50.956;7.010;2022-12-29T00:36:29;0.70;;;0.70;;
5273;SDS011;56254;50.956;7.010;2022-12-29T00:39:06;1.23;;;0.90;;
5273;SDS011;56254;50.956;7.010;2022-12-29T00:41:53;2.40;;;0.90;;
5273;SDS011;56254;50.956;7.010;2022-12-29T00:44:37;0.90;;;0.90;;
5273;SDS011;56254;50.956;7.010;2022-12-29T00:47:03;0.80;;;0.80;;
5273;SDS011;56254;50.956;7.010;2022-12-29T00:49:29;0.60;;;0.60;;
5273;SDS011;56254;50.956;7.010;2022-12-29T00:51:59;2.70;;;0.90;;
5273;SDS011;56254;50.956;7.010;2022-12-29T00:54:26;1.13;;;0.83;;
5273;SDS011;56254;50.956;7.010;2022-12-29T00:56:53;1.37;;;0.87;;
5273;SDS011;56254;50.956;7.010;2022-12-29T00:59:19;2.63;;;1.17;;
5273;SDS011;56254;50.956;7.010;2022-12-29T01:01:46;1.47;;;1.10;;
5273;SDS011;56254;50.956;7.010;2022-12-29T01:04:12;0.70;;;0.70;;
5273;SDS011;56254;50.956;7.010;2022-12-29T01:06:39;0.80;;;0.70;;
5273;SDS011;56254;50.956;7.010;2022-12-29T01:09:05;3.80;;;0.70;;
5273;SDS011;56254;50.956;7.010;2022-12-29T01:11:51;0.53;;;0.53;;
5273;SDS011;56254;50.956;7.010;2022-12-29T01:14:17;1.80;;;0.70;;
5273;SDS011;56254;50.956;7.010;2022-12-29T01:16:43;0.50;;;0.50;;
5273;SDS011;56254;50.956;7.010;2022-12-29T01:19:10;1.87;;;1.03;;
5273;SDS011;56254;50.956;7.010;2022-12-29T01:21:36;0.80;;;0.80;;
5273;SDS011;56254;50.956;7.010;2022-12-29T01:24:03;0.63;;;0.63;;
5273;SDS011;56254;50.956;7.010;2022-12-29T01:26:29;1.17;;;0.83;;
5273;SDS011;56254;50.956;7.010;2022-12-29T01:28:55;0.70;;;0.70;;
5273;SDS011;56254;50.956;7.010;2022-12-29T01:31:21;1.17;;;0.80;;
5273;SDS011;56254;50.956;7.010;2022-12-29T01:33:46;1.00;;;0.90;;
5273;SDS011;56254;50.956;7.010;2022-12-29T01:36:13;0.87;;;0.80;;
5273;SDS011;56254;50.956;7.010;2022-12-29T01:38:41;2.70;;;0.73;;
5273;SDS011;56254;50.956;7.010;2022-12-29T01:41:08;0.80;;;0.60;;
5273;SDS011;56254;50.956;7.010;2022-12-29T01:43:47;0.80;;;0.60;;
5273;SDS011;56254;50.956;7.010;2022-12-29T01:46:20;0.60;;;0.60;;
5273;SDS011;56254;50.956;7.010;2022-12-29T01:48:51;1.67;;;0.57;;
5273;SDS011;56254;50.956;7.010;2022-12-29T01:51:32;0.70;;;0.57;;
5273;SDS011;56254;50.956;7.010;2022-12-29T01:54:21;2.63;;;1.07;;
5273;SDS011;56254;50.956;7.010;2022-12-29T01:56:48;3.20;;;0.60;;
5273;SDS011;56254;50.956;7.010;2022-12-29T01:59:17;0.60;;;0.53;;
5273;SDS011;56254;50.956;7.010;2022-12-29T02:01:45;2.30;;;0.60;;
5273;SDS011;56254;50.956;7.010;2022-12-29T02:04:12;0.60;;;0.60;;
5273;SDS011;56254;50.956;7.010;2022-12-29T02:06:41;0.97;;;0.83;;
5273;SDS011;56254;50.956;7.010;2022-12-29T02:09:14;1.00;;;0.77;;
5273;SDS011;56254;50.956;7.010;2022-12-29T02:11:40;0.80;;;0.70;;
5273;SDS011;56254;50.956;7.010;2022-12-29T02:14:10;1.80;;;0.90;;
5273;SDS011;56254;50.956;7.010;2022-12-29T02:16:40;0.80;;;0.80;;
5273;SDS011;56254;50.956;7.010;2022-12-29T02:27:26;5.93;;;1.10;;
5273;SDS011;56254;50.956;7.010;2022-12-29T02:50:47;0.70;;;0.70;;
5273;SDS011;56254;50.956;7.010;2022-12-29T02:53:23;2.43;;;0.77;;
5273;SDS011;56254;50.956;7.010;2022-12-29T02:56:10;3.23;;;1.00;;
5273;SDS011;56254;50.956;7.010;2022-12-29T02:58:35;1.63;;;0.80;;
5273;SDS011;56254;50.956;7.010;2022-12-29T03:09:15;0.73;;;0.73;;
5273;SDS011;56254;50.956;7.010;2022-12-29T03:14:34;1.53;;;0.70;;
5273;SDS011;56254;50.956;7.010;2022-12-29T03:20:07;1.20;;;0.80;;
5273;SDS011;56254;50.956;7.010;2022-12-29T03:22:38;1.37;;;0.90;;
5273;SDS011;56254;50.956;7.010;2022-12-29T03:25:08;2.77;;;1.37;;
5273;SDS011;56254;50.956;7.010;2022-12-29T03:31:04;5.13;;;0.90;;
5273;SDS011;56254;50.956;7.010;2022-12-29T03:33:33;0.80;;;0.80;;
5273;SDS011;56254;50.956;7.010;2022-12-29T03:36:05;0.80;;;0.80;;
5273;SDS011;56254;50.956;7.010;2022-12-29T03:38:36;1.10;;;0.70;;
5273;SDS011;56254;50.956;7.010;2022-12-29T03:41:10;4.53;;;0.60;;
5273;SDS011;56254;50.956;7.010;2022-12-29T03:43:39;0.60;;;0.60;;
5273;SDS011;56254;50.956;7.010;2022-12-29T03:46:05;0.50;;;0.50;;
5273;SDS011;56254;50.956;7.010;2022-12-29T03:48:32;1.03;;;1.03;;
5273;SDS011;56254;50.956;7.010;2022-12-29T03:50:57;0.60;;;0.60;;
5273;SDS011;56254;50.956;7.010;2022-12-29T03:53:23;0.60;;;0.60;;
5273;SDS011;56254;50.956;7.010;2022-12-29T03:55:49;0.70;;;0.70;;
5273;SDS011;56254;50.956;7.010;2022-12-29T03:58:15;0.70;;;0.70;;
5273;SDS011;56254;50.956;7.010;2022-12-29T04:00:41;0.50;;;0.50;;
5273;SDS011;56254;50.956;7.010;2022-12-29T04:03:06;1.53;;;0.70;;
5273;SDS011;56254;50.956;7.010;2022-12-29T04:05:32;1.83;;;0.80;;
5273;SDS011;56254;50.956;7.010;2022-12-29T04:07:57;0.60;;;0.60;;
5273;SDS011;56254;50.956;7.010;2022-12-29T04:10:23;3.80;;;0.93;;
5273;SDS011;56254;50.956;7.010;2022-12-29T04:12:49;0.90;;;0.90;;
5273;SDS011;56254;50.956;7.010;2022-12-29T04:15:15;0.83;;;0.60;;
5273;SDS011;56254;50.956;7.010;2022-12-29T04:17:40;0.77;;;0.70;;
5273;SDS011;56254;50.956;7.010;2022-12-29T04:20:06;1.43;;;0.90;;
5273;SDS011;56254;50.956;7.010;2022-12-29T04:23:12;0.87;;;0.87;;
5273;SDS011;56254;50.956;7.010;2022-12-29T04:25:36;0.80;;;0.70;;
5273;SDS011;56254;50.956;7.010;2022-12-29T04:28:02;1.83;;;0.60;;
5273;SDS011;56254;50.956;7.010;2022-12-29T04:30:31;1.67;;;0.73;;
5273;SDS011;56254;50.956;7.010;2022-12-29T04:32:56;0.90;;;0.90;;
5273;SDS011;56254;50.956;7.010;2022-12-29T04:35:22;0.50;;;0.50;;
5273;SDS011;56254;50.956;7.010;2022-12-29T04:37:48;1.30;;;0.70;;
5273;SDS011;56254;50.956;7.010;2022-12-29T04:40:13;0.70;;;0.50;;
5273;SDS011;56254;50.956;7.010;2022-12-29T04:42:39;0.97;;;0.60;;
5273;SDS011;56254;50.956;7.010;2022-12-29T04:45:05;2.30;;;0.60;;
5273;SDS011;56254;50.956;7.010;2022-12-29T04:47:31;0.60;;;0.60;;
5273;SDS011;56254;50.956;7.010;2022-12-29T04:49:57;3.27;;;1.43;;
5273;SDS011;56254;50.956;7.010;2022-12-29T04:52:23;0.63;;;0.63;;
5273;SDS011;56254;50.956;7.010;2022-12-29T04:54:48;0.70;;;0.60;;
5273;SDS011;56254;50.956;7.010;2022-12-29T04:57:14;1.37;;;0.70;;
5273;SDS011;56254;50.956;7.010;2022-12-29T04:59:40;0.73;;;0.73;;
5273;SDS011;56254;50.956;7.010;2022-12-29T05:02:05;0.73;;;0.73;;
5273;SDS011;56254;50.956;7.010;2022-12-29T05:04:31;3.93;;;0.70;;
5273;SDS011;56254;50.956;7.010;2022-12-29T05:06:57;1.60;;;1.00;;
5273;SDS011;56254;50.956;7.010;2022-12-29T05:09:22;0.67;;;0.67;;
5273;SDS011;56254;50.956;7.010;2022-12-29T05:11:49;2.60;;;0.70;;
5273;SDS011;56254;50.956;7.010;2022-12-29T05:14:14;3.37;;;0.70;;
5273;SDS011;56254;50.956;7.010;2022-12-29T05:16:40;0.90;;;0.80;;
5273;SDS011;56254;50.956;7.010;2022-12-29T05:19:06;1.87;;;0.60;;
5273;SDS011;56254;50.956;7.010;2022-12-29T05:21:31;2.60;;;1.13;;
5273;SDS011;56254;50.956;7.010;2022-12-29T05:23:57;0.70;;;0.70;;
5273;SDS011;56254;50.956;7.010;2022-12-29T05:26:23;0.60;;;0.60;;
5273;SDS011;56254;50.956;7.010;2022-12-29T05:28:48;1.97;;;1.00;;
5273;SDS011;56254;50.956;7.010;2022-12-29T05:31:14;3.00;;;0.70;;
5273;SDS011;56254;50.956;7.010;2022-12-29T05:33:40;3.13;;;0.80;;
5273;SDS011;56254;50.956;7.010;2022-12-29T05:36:06;1.90;;;0.90;;
5273;SDS011;56254;50.956;7.010;2022-12-29T05:38:34;1.17;;;0.63;;
5273;SDS011;56254;50.956;7.010;2022-12-29T05:41:00;1.73;;;1.20;;
5273;SDS011;56254;50.956;7.010;2022-12-29T05:43:26;6.63;;;1.10;;
5273;SDS011;56254;50.956;7.010;2022-12-29T05:45:52;0.70;;;0.70;;
5273;SDS011;56254;50.956;7.010;2022-12-29T05:48:18;5.50;;;1.03;;
5273;SDS011;56254;50.956;7.010;2022-12-29T05:50:50;0.93;;;0.60;;
5273;SDS011;56254;50.956;7.010;2022-12-29T05:53:17;2.50;;;1.00;;
5273;SDS011;56254;50.956;7.010;2022-12-29T05:55:43;8.33;;;1.67;;
5273;SDS011;56254;50.956;7.010;2022-12-29T05:58:13;0.93;;;0.80;;
5273;SDS011;56254;50.956;7.010;2022-12-29T06:00:39;0.90;;;0.80;;
5273;SDS011;56254;50.956;7.010;2022-12-29T06:03:05;2.20;;;1.30;;
5273;SDS011;56254;50.956;7.010;2022-12-29T06:05:31;1.13;;;0.60;;
5273;SDS011;56254;50.956;7.010;2022-12-29T06:07:56;1.00;;;0.90;;
5273;SDS011;56254;50.956;7.010;2022-12-29T06:10:22;2.50;;;1.10;;
5273;SDS011;56254;50.956;7.010;2022-12-29T06:12:48;1.53;;;0.67;;
5273;SDS011;56254;50.956;7.010;2022-12-29T06:15:14;3.43;;;1.07;;
5273;SDS011;56254;50.956;7.010;2022-12-29T06:17:40;0.80;;;0.70;;
5273;SDS011;56254;50.956;7.010;2022-12-29T06:20:06;1.53;;;0.80;;
5273;SDS011;56254;50.956;7.010;2022-12-29T06:22:32;0.80;;;0.80;;
5273;SDS011;56254;50.956;7.010;2022-12-29T06:24:58;1.43;;;1.20;;
5273;SDS011;56254;50.956;7.010;2022-12-29T06:27:24;0.80;;;0.80;;
5273;SDS011;56254;50.956;7.010;2022-12-29T06:29:50;0.90;;;0.60;;
5273;SDS011;56254;50.956;7.010;2022-12-29T06:32:16;0.80;;;0.80;;
5273;SDS011;56254;50.956;7.010;2022-12-29T06:34:42;0.93;;;0.70;;
5273;SDS011;56254;50.956;7.010;2022-12-29T06:37:09;1.17;;;0.70;;
5273;SDS011;56254;50.956;7.010;2022-12-29T06:39:36;0.60;;;0.60;;
5273;SDS011;56254;50.956;7.010;2022-12-29T06:42:02;1.47;;;0.93;;
5273;SDS011;56254;50.956;7.010;2022-12-29T06:44:27;0.90;;;0.90;;
5273;SDS011;56254;50.956;7.010;2022-12-29T06:46:53;1.33;;;0.70;;
5273;SDS011;56254;50.956;7.010;2022-12-29T06:49:19;1.47;;;1.37;;
5273;SDS011;56254;50.956;7.010;2022-12-29T06:51:45;1.80;;;0.80;;
5273;SDS011;56254;50.956;7.010;2022-12-29T06:54:11;1.87;;;0.90;;
5273;SDS011;56254;50.956;7.010;2022-12-29T06:56:37;0.90;;;0.60;;
5273;SDS011;56254;50.956;7.010;2022-12-29T06:59:03;0.77;;;0.70;;
5273;SDS011;56254;50.956;7.010;2022-12-29T07:01:29;0.97;;;0.73;;
5273;SDS011;56254;50.956;7.010;2022-12-29T07:03:55;0.60;;;0.60;;
5273;SDS011;56254;50.956;7.010;2022-12-29T07:06:22;1.73;;;0.87;;
5273;SDS011;56254;50.956;7.010;2022-12-29T07:08:48;0.93;;;0.70;;
5273;SDS011;56254;50.956;7.010;2022-12-29T07:11:14;0.80;;;0.60;;
5273;SDS011;56254;50.956;7.010;2022-12-29T07:13:41;1.03;;;0.70;;
5273;SDS011;56254;50.956;7.010;2022-12-29T07:16:08;2.40;;;0.97;;
5273;SDS011;56254;50.956;7.010;2022-12-29T07:18:34;10.00;;;0.80;;
5273;SDS011;56254;50.956;7.010;2022-12-29T07:21:01;2.20;;;0.70;;
5273;SDS011;56254;50.956;7.010;2022-12-29T07:23:27;6.50;;;0.97;;
5273;SDS011;56254;50.956;7.010;2022-12-29T07:26:04;0.70;;;0.70;;
5273;SDS011;56254;50.956;7.010;2022-12-29T07:28:30;6.40;;;0.90;;
5273;SDS011;56254;50.956;7.010;2022-12-29T07:30:59;8.43;;;0.80;;
5273;SDS011;56254;50.956;7.010;2022-12-29T07:33:27;1.13;;;0.70;;
5273;SDS011;56254;50.956;7.010;2022-12-29T07:35:53;1.20;;;0.70;;
5273;SDS011;56254;50.956;7.010;2022-12-29T07:38:19;5.37;;;0.70;;
5273;SDS011;56254;50.956;7.010;2022-12-29T07:40:45;0.97;;;0.70;;
5273;SDS011;56254;50.956;7.010;2022-12-29T07:43:12;2.63;;;0.87;;
5273;SDS011;56254;50.956;7.010;2022-12-29T07:45:38;4.00;;;1.47;;
5273;SDS011;56254;50.956;7.010;2022-12-29T07:48:05;3.40;;;1.00;;
5273;SDS011;56254;50.956;7.010;2022-12-29T07:50:33;2.20;;;0.60;;
5273;SDS011;56254;50.956;7.010;2022-12-29T07:52:59;5.37;;;0.83;;
5273;SDS011;56254;50.956;7.010;2022-12-29T07:55:25;2.60;;;0.80;;
5273;SDS011;56254;50.956;7.010;2022-12-29T07:57:54;7.70;;;1.10;;
5273;SDS011;56254;50.956;7.010;2022-12-29T08:00:20;5.50;;;0.63;;
5273;SDS011;56254;50.956;7.010;2022-12-29T08:02:47;2.77;;;1.03;;
5273;SDS011;56254;50.956;7.010;2022-12-29T08:05:13;4.17;;;1.33;;
5273;SDS011;56254;50.956;7.010;2022-12-29T08:07:41;4.30;;;1.43;;
5273;SDS011;56254;50.956;7.010;2022-12-29T08:10:07;6.70;;;1.50;;
5273;SDS011;56254;50.956;7.010;2022-12-29T08:12:34;2.73;;;0.80;;
5273;SDS011;56254;50.956;7.010;2022-12-29T08:14:59;16.93;;;1.77;;
5273;SDS011;56254;50.956;7.010;2022-12-29T08:17:25;6.90;;;1.10;;
5273;SDS011;56254;50.956;7.010;2022-12-29T08:19:51;13.40;;;0.87;;
5273;SDS011;56254;50.956;7.010;2022-12-29T08:22:17;1.03;;;0.77;;
5273;SDS011;56254;50.956;7.010;2022-12-29T08:24:43;3.13;;;1.00;;
5273;SDS011;56254;50.956;7.010;2022-12-29T08:27:09;7.70;;;0.90;;
5273;SDS011;56254;50.956;7.010;2022-12-29T08:29:35;4.67;;;1.00;;
5273;SDS011;56254;50.956;7.010;2022-12-29T08:32:02;6.07;;;1.20;;
5273;SDS011;56254;50.956;7.010;2022-12-29T08:34:29;2.27;;;1.03;;
5273;SDS011;56254;50.956;7.010;2022-12-29T08:36:55;2.23;;;1.10;;
5273;SDS011;56254;50.956;7.010;2022-12-29T08:39:21;3.60;;;1.33;;
5273;SDS011;56254;50.956;7.010;2022-12-29T08:41:47;2.33;;;1.10;;
5273;SDS011;56254;50.956;7.010;2022-12-29T08:44:13;5.10;;;1.23;;
5273;SDS011;56254;50.956;7.010;2022-12-29T08:46:39;2.60;;;1.20;;
5273;SDS011;56254;50.956;7.010;2022-12-29T08:49:05;2.90;;;1.10;;
5273;SDS011;56254;50.956;7.010;2022-12-29T08:51:32;2.30;;;1.20;;
5273;SDS011;56254;50.956;7.010;2022-12-29T08:53:59;6.30;;;1.00;;
5273;SDS011;56254;50.956;7.010;2022-12-29T08:56:25;6.30;;;1.50;;
5273;SDS011;56254;50.956;7.010;2022-12-29T08:58:51;4.90;;;1.03;;
5273;SDS011;56254;50.956;7.010;2022-12-29T09:01:18;7.20;;;1.83;;
5273;SDS011;56254;50.956;7.010;2022-12-29T09:03:44;7.30;;;1.20;;
5273;SDS011;56254;50.956;7.010;2022-12-29T09:06:11;4.67;;;1.07;;
5273;SDS011;56254;50.956;7.010;2022-12-29T09:08:38;3.40;;;1.20;;
5273;SDS011;56254;50.956;7.010;2022-12-29T09:11:12;9.00;;;1.57;;
5273;SDS011;56254;50.956;7.010;2022-12-29T09:13:38;1.27;;;0.87;;
5273;SDS011;56254;50.956;7.010;2022-12-29T09:16:05;7.33;;;1.10;;
5273;SDS011;56254;50.956;7.010;2022-12-29T09:18:31;3.40;;;0.90;;
5273;SDS011;56254;50.956;7.010;2022-12-29T09:20:58;4.83;;;1.10;;
5273;SDS011;56254;50.956;7.010;2022-12-29T09:23:24;2.33;;;0.90;;
5273;SDS011;56254;50.956;7.010;2022-12-29T09:25:50;8.27;;;1.53;;
5273;SDS011;56254;50.956;7.010;2022-12-29T09:28:16;6.30;;;1.10;;
5273;SDS011;56254;50.956;7.010;2022-12-29T09:30:43;3.50;;;1.07;;
5273;SDS011;56254;50.956;7.010;2022-12-29T09:33:09;4.30;;;1.20;;
5273;SDS011;56254;50.956;7.010;2022-12-29T09:35:35;4.60;;;1.30;;
5273;SDS011;56254;50.956;7.010;2022-12-29T09:38:01;4.80;;;1.40;;
5273;SDS011;56254;50.956;7.010;2022-12-29T09:40:28;4.17;;;1.40;;
5273;SDS011;56254;50.956;7.010;2022-12-29T09:43:01;2.23;;;1.03;;
5273;SDS011;56254;50.956;7.010;2022-12-29T09:45:52;4.83;;;0.90;;
5273;SDS011;56254;50.956;7.010;2022-12-29T09:48:27;14.23;;;1.43;;
5273;SDS011;56254;50.956;7.010;2022-12-29T09:50:55;2.63;;;1.17;;
5273;SDS011;56254;50.956;7.010;2022-12-29T09:53:32;9.37;;;2.77;;
5273;SDS011;56254;50.956;7.010;2022-12-29T09:56:02;4.77;;;1.20;;
5273;SDS011;56254;50.956;7.010;2022-12-29T09:58:37;4.10;;;1.07;;
5273;SDS011;56254;50.956;7.010;2022-12-29T10:01:14;4.37;;;0.87;;
5273;SDS011;56254;50.956;7.010;2022-12-29T10:03:50;4.93;;;1.43;;
5273;SDS011;56254;50.956;7.010;2022-12-29T10:17:02;4.50;;;1.27;;
5273;SDS011;56254;50.956;7.010;2022-12-29T10:24:45;2.70;;;1.40;;
5273;SDS011;56254;50.956;7.010;2022-12-29T10:27:13;4.53;;;1.23;;
5273;SDS011;56254;50.956;7.010;2022-12-29T10:29:41;7.70;;;1.53;;
5273;SDS011;56254;50.956;7.010;2022-12-29T10:32:17;11.63;;;1.80;;
5273;SDS011;56254;50.956;7.010;2022-12-29T10:34:47;10.80;;;1.43;;
5273;SDS011;56254;50.956;7.010;2022-12-29T10:37:24;8.30;;;1.00;;
5273;SDS011;56254;50.956;7.010;2022-12-29T10:39:53;4.27;;;1.23;;
5273;SDS011;56254;50.956;7.010;2022-12-29T10:44:45;9.53;;;1.30;;
5273;SDS011;56254;50.956;7.010;2022-12-29T10:47:15;3.30;;;1.00;;
5273;SDS011;56254;50.956;7.010;2022-12-29T10:49:42;8.80;;;1.87;;
5273;SDS011;56254;50.956;7.010;2022-12-29T10:52:10;10.03;;;1.17;;
5273;SDS011;56254;50.956;7.010;2022-12-29T10:59:47;8.77;;;1.20;;
5273;SDS011;56254;50.956;7.010;2022-12-29T11:07:46;5.50;;;1.80;;
5273;SDS011;56254;50.956;7.010;2022-12-29T11:10:20;1.80;;;0.87;;
5273;SDS011;56254;50.956;7.010;2022-12-29T11:13:01;6.63;;;1.73;;
5273;SDS011;56254;50.956;7.010;2022-12-29T11:15:28;9.33;;;1.33;;
5273;SDS011;56254;50.956;7.010;2022-12-29T11:18:03;6.73;;;1.00;;
5273;SDS011;56254;50.956;7.010;2022-12-29T11:22:55;2.23;;;1.03;;
5273;SDS011;56254;50.956;7.010;2022-12-29T11:25:21;3.40;;;1.30;;
5273;SDS011;56254;50.956;7.010;2022-12-29T11:30:27;4.63;;;1.37;;
5273;SDS011;56254;50.956;7.010;2022-12-29T11:32:54;4.43;;;1.17;;
5273;SDS011;56254;50.956;7.010;2022-12-29T11:37:59;10.37;;;1.30;;
5273;SDS011;56254;50.956;7.010;2022-12-29T11:40:27;5.50;;;1.20;;
5273;SDS011;56254;50.956;7.010;2022-12-29T11:42:57;6.43;;;1.50;;
5273;SDS011;56254;50.956;7.010;2022-12-29T11:45:27;5.87;;;1.50;;
5273;SDS011;56254;50.956;7.010;2022-12-29T11:50:27;6.10;;;1.73;;
5273;SDS011;56254;50.956;7.010;2022-12-29T11:53:01;9.63;;;1.60;;
5273;SDS011;56254;50.956;7.010;2022-12-29T11:55:28;10.53;;;1.50;;
5273;SDS011;56254;50.956;7.010;2022-12-29T11:57:55;6.63;;;1.73;;
5273;SDS011;56254;50.956;7.010;2022-12-29T12:00:23;8.93;;;1.97;;
5273;SDS011;56254;50.956;7.010;2022-12-29T12:03:05;9.83;;;1.30;;
5273;SDS011;56254;50.956;7.010;2022-12-29T12:05:44;6.20;;;1.43;;
5273;SDS011;56254;50.956;7.010;2022-12-29T12:08:34;6.73;;;1.53;;
5273;SDS011;56254;50.956;7.010;2022-12-29T12:11:04;11.80;;;2.33;;
5273;SDS011;56254;50.956;7.010;2022-12-29T12:15:59;8.90;;;2.30;;
5273;SDS011;56254;50.956;7.010;2022-12-29T12:18:32;6.53;;;1.10;;
5273;SDS011;56254;50.956;7.010;2022-12-29T12:21:04;7.93;;;2.10;;
5273;SDS011;56254;50.956;7.010;2022-12-29T12:26:13;7.40;;;1.43;;
5273;SDS011;56254;50.956;7.010;2022-12-29T12:31:13;7.63;;;1.10;;
5273;SDS011;56254;50.956;7.010;2022-12-29T12:33:42;4.10;;;1.63;;
5273;SDS011;56254;50.956;7.010;2022-12-29T12:46:27;9.50;;;1.60;;
5273;SDS011;56254;50.956;7.010;2022-12-29T12:57:10;7.00;;;1.03;;
5273;SDS011;56254;50.956;7.010;2022-12-29T12:59:46;9.23;;;1.47;;
5273;SDS011;56254;50.956;7.010;2022-12-29T13:17:55;5.00;;;1.60;;
5273;SDS011;56254;50.956;7.010;2022-12-29T13:20:27;6.13;;;1.47;;
5273;SDS011;56254;50.956;7.010;2022-12-29T13:23:04;6.33;;;1.27;;
5273;SDS011;56254;50.956;7.010;2022-12-29T13:25:40;7.20;;;1.37;;
5273;SDS011;56254;50.956;7.010;2022-12-29T13:33:17;3.60;;;1.30;;
5273;SDS011;56254;50.956;7.010;2022-12-29T13:38:24;9.00;;;1.60;;
5273;SDS011;56254;50.956;7.010;2022-12-29T13:40:59;5.17;;;1.80;;
5273;SDS011;56254;50.956;7.010;2022-12-29T13:43:26;11.53;;;2.03;;
5273;SDS011;56254;50.956;7.010;2022-12-29T13:46:02;8.27;;;2.00;;
5273;SDS011;56254;50.956;7.010;2022-12-29T13:48:44;14.23;;;3.07;;
5273;SDS011;56254;50.956;7.010;2022-12-29T13:51:12;5.20;;;1.07;;
5273;SDS011;56254;50.956;7.010;2022-12-29T13:56:12;4.13;;;1.40;;
5273;SDS011;56254;50.956;7.010;2022-12-29T14:03:51;6.63;;;1.70;;
5273;SDS011;56254;50.956;7.010;2022-12-29T14:06:22;11.50;;;1.53;;
5273;SDS011;56254;50.956;7.010;2022-12-29T14:08:49;12.97;;;1.93;;
5273;SDS011;56254;50.956;7.010;2022-12-29T14:11:17;5.93;;;1.60;;
5273;SDS011;56254;50.956;7.010;2022-12-29T14:13:44;13.27;;;1.77;;
5273;SDS011;56254;50.956;7.010;2022-12-29T14:16:34;8.43;;;2.37;;
5273;SDS011;56254;50.956;7.010;2022-12-29T14:21:54;4.30;;;1.30;;
5273;SDS011;56254;50.956;7.010;2022-12-29T14:34:51;5.47;;;1.10;;
5273;SDS011;56254;50.956;7.010;2022-12-29T14:37:27;2.90;;;1.63;;
5273;SDS011;56254;50.956;7.010;2022-12-29T14:42:32;5.17;;;1.60;;
5273;SDS011;56254;50.956;7.010;2022-12-29T14:45:19;7.03;;;2.53;;
5273;SDS011;56254;50.956;7.010;2022-12-29T14:47:50;5.53;;;1.47;;
5273;SDS011;56254;50.956;7.010;2022-12-29T14:55:28;16.27;;;1.77;;
5273;SDS011;56254;50.956;7.010;2022-12-29T14:57:59;22.83;;;1.77;;
5273;SDS011;56254;50.956;7.010;2022-12-29T15:00:30;3.00;;;1.70;;
5273;SDS011;56254;50.956;7.010;2022-12-29T15:03:06;4.50;;;1.80;;
5273;SDS011;56254;50.956;7.010;2022-12-29T15:05:44;14.73;;;1.87;;
5273;SDS011;56254;50.956;7.010;2022-12-29T15:08:12;3.23;;;1.10;;
5273;SDS011;56254;50.956;7.010;2022-12-29T15:10:42;11.73;;;1.83;;
5273;SDS011;56254;50.956;7.010;2022-12-29T15:13:17;3.33;;;1.20;;
5273;SDS011;56254;50.956;7.010;2022-12-29T15:15:44;9.43;;;2.10;;
5273;SDS011;56254;50.956;7.010;2022-12-29T15:18:14;6.60;;;2.00;;
5273;SDS011;56254;50.956;7.010;2022-12-29T15:20:40;5.73;;;1.87;;
5273;SDS011;56254;50.956;7.010;2022-12-29T15:23:11;10.77;;;2.73;;
5273;SDS011;56254;50.956;7.010;2022-12-29T15:25:47;8.60;;;2.00;;
5273;SDS011;56254;50.956;7.010;2022-12-29T15:28:14;18.97;;;2.70;;
5273;SDS011;56254;50.956;7.010;2022-12-29T15:30:54;14.50;;;2.60;;
5273;SDS011;56254;50.956;7.010;2022-12-29T15:33:21;10.90;;;2.70;;
5273;SDS011;56254;50.956;7.010;2022-12-29T15:35:51;7.83;;;2.00;;
5273;SDS011;56254;50.956;7.010;2022-12-29T15:38:23;9.43;;;1.60;;
5273;SDS011;56254;50.956;7.010;2022-12-29T15:41:00;14.60;;;1.80;;
5273;SDS011;56254;50.956;7.010;2022-12-29T15:44:11;6.70;;;2.20;;
5273;SDS011;56254;50.956;7.010;2022-12-29T15:46:17;12.40;;;1.80;;
5273;SDS011;56254;50.956;7.010;2022-12-29T15:48:46;6.43;;;2.17;;
5273;SDS011;56254;50.956;7.010;2022-12-29T15:51:17;8.23;;;1.60;;
5273;SDS011;56254;50.956;7.010;2022-12-29T15:53:46;21.77;;;2.90;;
5273;SDS011;56254;50.956;7.010;2022-12-29T15:56:13;13.40;;;1.50;;
5273;SDS011;56254;50.956;7.010;2022-12-29T15:58:50;8.53;;;2.20;;
5273;SDS011;56254;50.956;7.010;2022-12-29T16:01:17;13.77;;;2.13;;
5273;SDS011;56254;50.956;7.010;2022-12-29T16:03:44;6.47;;;2.20;;
5273;SDS011;56254;50.956;7.010;2022-12-29T16:06:25;14.83;;;3.87;;
5273;SDS011;56254;50.956;7.010;2022-12-29T16:09:04;4.40;;;1.17;;
5273;SDS011;56254;50.956;7.010;2022-12-29T16:13:58;17.77;;;2.20;;
5273;SDS011;56254;50.956;7.010;2022-12-29T16:16:26;8.67;;;2.40;;
5273;SDS011;56254;50.956;7.010;2022-12-29T16:18:53;7.33;;;2.23;;
5273;SDS011;56254;50.956;7.010;2022-12-29T16:21:21;22.83;;;3.70;;
5273;SDS011;56254;50.956;7.010;2022-12-29T16:23:50;13.70;;;3.37;;
5273;SDS011;56254;50.956;7.010;2022-12-29T16:26:17;6.10;;;3.30;;
5273;SDS011;56254;50.956;7.010;2022-12-29T16:28:43;4.13;;;1.77;;
5273;SDS011;56254;50.956;7.010;2022-12-29T16:31:51;13.43;;;2.60;;
5273;SDS011;56254;50.956;7.010;2022-12-29T16:36:57;13.50;;;3.43;;
5273;SDS011;56254;50.956;7.010;2022-12-29T16:39:24;22.77;;;2.87;;
5273;SDS011;56254;50.956;7.010;2022-12-29T16:41:52;12.47;;;2.93;;
5273;SDS011;56254;50.956;7.010;2022-12-29T16:49:30;10.63;;;2.83;;
5273;SDS011;56254;50.956;7.010;2022-12-29T16:51:56;10.90;;;2.83;;
5273;SDS011;56254;50.956;7.010;2022-12-29T16:54:33;8.53;;;2.50;;
5273;SDS011;56254;50.956;7.010;2022-12-29T16:57:01;5.00;;;2.50;;
5273;SDS011;56254;50.956;7.010;2022-12-29T16:59:30;10.10;;;2.03;;
5273;SDS011;56254;50.956;7.010;2022-12-29T17:01:57;10.20;;;1.97;;
5273;SDS011;56254;50.956;7.010;2022-12-29T17:04:24;11.87;;;3.00;;
5273;SDS011;56254;50.956;7.010;2022-12-29T17:06:50;11.17;;;2.87;;
5273;SDS011;56254;50.956;7.010;2022-12-29T17:11:43;7.93;;;2.40;;
5273;SDS011;56254;50.956;7.010;2022-12-29T17:16:49;14.77;;;3.27;;
5273;SDS011;56254;50.956;7.010;2022-12-29T17:19:16;12.33;;;4.07;;
5273;SDS011;56254;50.956;7.010;2022-12-29T17:21:42;10.50;;;3.00;;
5273;SDS011;56254;50.956;7.010;2022-12-29T17:24:16;8.37;;;3.73;;
5273;SDS011;56254;50.956;7.010;2022-12-29T17:26:42;14.67;;;3.00;;
5273;SDS011;56254;50.956;7.010;2022-12-29T17:29:32;10.20;;;2.40;;
5273;SDS011;56254;50.956;7.010;2022-12-29T17:31:57;13.43;;;2.67;;
5273;SDS011;56254;50.956;7.010;2022-12-29T17:34:23;10.00;;;3.40;;
5273;SDS011;56254;50.956;7.010;2022-12-29T17:36:49;9.83;;;2.70;;
5273;SDS011;56254;50.956;7.010;2022-12-29T17:39:15;16.60;;;3.70;;
5273;SDS011;56254;50.956;7.010;2022-12-29T17:41:41;17.27;;;3.40;;
5273;SDS011;56254;50.956;7.010;2022-12-29T17:44:08;12.60;;;2.97;;
5273;SDS011;56254;50.956;7.010;2022-12-29T17:46:39;21.57;;;2.63;;
5273;SDS011;56254;50.956;7.010;2022-12-29T17:49:08;12.40;;;3.70;;
5273;SDS011;56254;50.956;7.010;2022-12-29T17:51:36;8.60;;;3.50;;
5273;SDS011;56254;50.956;7.010;2022-12-29T17:54:02;15.83;;;3.07;;
5273;SDS011;56254;50.956;7.010;2022-12-29T17:56:28;26.57;;;3.77;;
5273;SDS011;56254;50.956;7.010;2022-12-29T17:58:54;6.87;;;2.13;;
5273;SDS011;56254;50.956;7.010;2022-12-29T18:01:21;17.10;;;3.20;;
5273;SDS011;56254;50.956;7.010;2022-12-29T18:03:50;14.53;;;3.20;;
5273;SDS011;56254;50.956;7.010;2022-12-29T18:06:16;27.97;;;4.30;;
5273;SDS011;56254;50.956;7.010;2022-12-29T18:08:42;16.33;;;3.70;;
5273;SDS011;56254;50.956;7.010;2022-12-29T18:11:22;19.50;;;3.60;;